createdAt,value
2022-09-11T00:01:22.466Z,16.27
2022-09-11T00:03:49.421Z,16.27
2022-09-11T00:06:28.817Z,16.25
2022-09-11T00:09:01.721Z,16.25
2022-09-11T00:11:35.033Z,16.26
2022-09-11T00:14:02.100Z,16.26
2022-09-11T00:16:31.710Z,16.27
2022-09-11T00:19:03.120Z,16.26
2022-09-11T00:21:29.855Z,16.26
2022-09-11T00:23:57.107Z,16.26
2022-09-11T00:26:23.802Z,16.26
2022-09-11T00:28:50.932Z,16.24
2022-09-11T00:31:20.593Z,16.25
2022-09-11T00:33:47.492Z,16.24
2022-09-11T00:36:17.562Z,16.21
2022-09-11T00:38:44.835Z,16.22
2022-09-11T00:41:24.538Z,16.21
2022-09-11T00:44:27.935Z,16.20
2022-09-11T00:47:01.051Z,16.21
2022-09-11T00:49:40.798Z,16.23
2022-09-11T00:52:14.781Z,16.23
2022-09-11T00:54:49.956Z,16.23
2022-09-11T00:57:19.058Z,16.23
2022-09-11T00:59:48.020Z,16.24
2022-09-11T01:02:19.263Z,16.24
2022-09-11T01:04:45.800Z,16.25
2022-09-11T01:07:14.187Z,16.26
2022-09-11T01:09:42.759Z,16.26
2022-09-11T01:12:47.028Z,16.24
2022-09-11T01:15:35.241Z,16.21
2022-09-11T01:18:29.919Z,16.21
2022-09-11T01:21:23.113Z,16.20
2022-09-11T01:24:00.989Z,16.20
2022-09-11T01:26:36.741Z,16.21
2022-09-11T01:29:08.501Z,16.21
2022-09-11T01:31:42.964Z,16.20
2022-09-11T01:34:19.408Z,16.17
2022-09-11T01:36:53.051Z,16.16
2022-09-11T01:39:25.016Z,16.14
2022-09-11T01:42:04.094Z,16.13
2022-09-11T01:44:59.283Z,16.10
2022-09-11T01:47:29.013Z,16.11
2022-09-11T01:50:06.726Z,16.11
2022-09-11T01:52:46.835Z,16.11
2022-09-11T01:55:17.710Z,16.12
2022-09-11T01:57:51.488Z,16.13
2022-09-11T02:00:19.595Z,16.14
2022-09-11T02:02:59.568Z,16.14
2022-09-11T02:05:49.071Z,16.13
2022-09-11T02:08:30.555Z,16.15
2022-09-11T02:11:04.387Z,16.17
2022-09-11T02:13:50.159Z,16.15
2022-09-11T02:16:39.388Z,16.14
2022-09-11T02:19:11.299Z,16.13
2022-09-11T02:21:38.084Z,16.14
2022-09-11T02:24:07.282Z,16.14
2022-09-11T02:26:39.667Z,16.12
2022-09-11T02:29:06.689Z,16.12
2022-09-11T02:31:35.536Z,16.03
2022-09-11T02:34:02.280Z,16.11
2022-09-11T02:36:31.864Z,16.13
2022-09-11T02:39:13.257Z,16.11
2022-09-11T02:42:23.230Z,16.08
2022-09-11T02:44:49.892Z,16.11
2022-09-11T02:47:19.385Z,16.11
2022-09-11T02:50:15.487Z,16.11
2022-09-11T02:53:06.332Z,16.12
2022-09-11T02:56:03.175Z,16.11
2022-09-11T02:58:40.200Z,16.11
2022-09-11T03:01:09.402Z,16.11
2022-09-11T03:03:42.102Z,16.09
2022-09-11T03:06:13.706Z,16.09
2022-09-11T03:08:40.379Z,16.07
2022-09-11T03:11:07.394Z,16.07
2022-09-11T03:13:33.930Z,16.07
2022-09-11T03:16:01.632Z,16.05
2022-09-11T03:18:28.237Z,16.03
2022-09-11T03:20:54.780Z,16.03
2022-09-11T03:23:21.309Z,16.01
2022-09-11T03:25:47.907Z,16.01
2022-09-11T03:28:14.688Z,16.00
2022-09-11T03:30:41.266Z,15.99
2022-09-11T03:33:08.724Z,15.99
2022-09-11T03:35:35.524Z,15.99
2022-09-11T03:38:02.535Z,15.99
2022-09-11T03:40:29.233Z,15.99
2022-09-11T03:42:57.306Z,15.88
2022-09-11T03:45:23.881Z,15.99
2022-09-11T03:47:50.463Z,15.97
2022-09-11T03:50:17.024Z,15.98
2022-09-11T03:52:43.663Z,15.96
2022-09-11T03:55:11.934Z,15.93
2022-09-11T03:57:38.675Z,15.94
2022-09-11T04:00:06.975Z,15.94
2022-09-11T04:02:46.661Z,15.94
2022-09-11T04:05:17.891Z,15.94
2022-09-11T04:07:44.925Z,15.96
2022-09-11T04:10:11.586Z,15.96
2022-09-11T04:12:38.443Z,15.97
2022-09-11T04:15:06.443Z,15.96
2022-09-11T04:17:35.780Z,15.96
2022-09-11T04:20:03.715Z,15.96
2022-09-11T04:22:31.213Z,15.97
2022-09-11T04:24:57.806Z,15.95
2022-09-11T04:27:24.550Z,15.93
2022-09-11T04:29:51.532Z,15.92
2022-09-11T04:32:18.576Z,15.92
2022-09-11T04:34:45.226Z,15.92
2022-09-11T04:37:11.809Z,15.92
2022-09-11T04:39:39.862Z,15.90
2022-09-11T04:42:06.440Z,15.91
2022-09-11T04:44:34.223Z,15.91
2022-09-11T04:47:00.742Z,15.91
2022-09-11T04:49:28.109Z,15.89
2022-09-11T04:51:54.733Z,15.91
2022-09-11T04:54:23.649Z,15.91
2022-09-11T04:56:51.148Z,15.93
2022-09-11T04:59:20.521Z,15.93
2022-09-11T05:01:55.759Z,15.96
2022-09-11T05:04:26.210Z,15.98
2022-09-11T05:06:54.500Z,16.01
2022-09-11T05:09:21.158Z,16.04
2022-09-11T05:11:48.381Z,16.05
2022-09-11T05:14:16.251Z,16.06
2022-09-11T05:16:45.187Z,16.09
2022-09-11T05:19:12.597Z,16.09
2022-09-11T05:21:39.746Z,16.11
2022-09-11T05:24:06.384Z,16.13
2022-09-11T05:26:36.357Z,16.13
2022-09-11T05:29:11.160Z,16.12
2022-09-11T05:31:52.401Z,16.14
2022-09-11T05:34:20.192Z,16.14
2022-09-11T05:36:48.043Z,16.12
2022-09-11T05:39:14.499Z,16.13
2022-09-11T05:41:41.817Z,16.12
2022-09-11T05:44:08.336Z,16.13
2022-09-11T05:46:37.342Z,16.14
2022-09-11T05:49:03.941Z,16.13
2022-09-11T05:51:30.540Z,16.14
2022-09-11T05:53:58.458Z,16.13
2022-09-11T05:56:26.233Z,16.15
2022-09-11T05:58:57.084Z,16.13
2022-09-11T06:01:29.678Z,16.13
2022-09-11T06:04:09.962Z,16.15
2022-09-11T06:06:36.842Z,16.17
2022-09-11T06:09:04.317Z,16.17
2022-09-11T06:11:31.896Z,16.18
2022-09-11T06:13:58.814Z,16.20
2022-09-11T06:16:25.811Z,16.21
2022-09-11T06:18:56.639Z,16.24
2022-09-11T06:21:25.896Z,16.27
2022-09-11T06:23:59.747Z,16.28
2022-09-11T06:26:27.203Z,16.30
2022-09-11T06:28:54.345Z,16.33
2022-09-11T06:31:25.124Z,16.35
2022-09-11T06:33:53.965Z,16.36
2022-09-11T06:36:26.181Z,16.39
2022-09-11T06:38:58.325Z,16.41
2022-09-11T06:41:28.035Z,16.46
2022-09-11T06:44:03.203Z,16.45
2022-09-11T06:46:30.775Z,16.49
2022-09-11T06:48:59.042Z,16.49
2022-09-11T06:51:27.156Z,16.51
2022-09-11T06:53:55.326Z,16.56
2022-09-11T06:56:22.023Z,16.60
2022-09-11T06:58:48.564Z,16.63
2022-09-11T07:01:17.316Z,16.66
2022-09-11T07:03:47.760Z,16.72
2022-09-11T07:06:19.210Z,16.76
2022-09-11T07:08:57.263Z,16.80
2022-09-11T07:11:23.881Z,16.84
2022-09-11T07:13:51.527Z,16.83
2022-09-11T07:16:18.751Z,16.92
2022-09-11T07:18:52.130Z,16.96
2022-09-11T07:21:23.365Z,16.97
2022-09-11T07:23:58.697Z,16.99
2022-09-11T07:26:29.611Z,17.03
2022-09-11T07:29:03.044Z,17.03
2022-09-11T07:31:31.016Z,17.07
2022-09-11T07:33:57.584Z,17.11
2022-09-11T07:36:34.318Z,17.14
2022-09-11T07:39:02.832Z,17.19
2022-09-11T07:41:48.062Z,17.28
2022-09-11T07:44:20.117Z,17.34
2022-09-11T07:46:46.864Z,17.37
2022-09-11T07:49:14.317Z,17.38
2022-09-11T07:51:42.478Z,17.29
2022-09-11T07:54:11.269Z,17.40
2022-09-11T07:56:39.310Z,17.41
2022-09-11T07:59:08.748Z,17.43
2022-09-11T08:01:37.946Z,17.44
2022-09-11T08:04:10.286Z,17.48
2022-09-11T08:06:38.240Z,17.57
2022-09-11T08:09:12.452Z,17.65
2022-09-11T08:11:45.439Z,17.75
2022-09-11T08:14:12.722Z,17.84
2022-09-11T08:16:40.879Z,17.89
2022-09-11T08:19:08.012Z,17.98
2022-09-11T08:21:35.170Z,18.06
2022-09-11T08:24:02.975Z,18.13
2022-09-11T08:26:30.359Z,18.19
2022-09-11T08:28:59.167Z,18.25
2022-09-11T08:31:32.916Z,18.30
2022-09-11T08:34:01.559Z,18.34
2022-09-11T08:36:28.633Z,18.36
2022-09-11T08:38:59.305Z,18.39
2022-09-11T08:41:30.570Z,18.38
2022-09-11T08:44:07.117Z,18.42
2022-09-11T08:46:43.864Z,18.39
2022-09-11T08:49:14.590Z,18.44
2022-09-11T08:51:43.079Z,18.44
2022-09-11T08:54:24.758Z,18.41
2022-09-11T08:56:52.389Z,18.44
2022-09-11T08:59:56.732Z,18.42
2022-09-11T09:02:57.953Z,18.44
2022-09-11T09:05:42.435Z,18.43
2022-09-11T09:08:24.812Z,18.41
2022-09-11T09:11:03.645Z,18.40
2022-09-11T09:13:45.501Z,18.38
2022-09-11T09:16:20.924Z,18.41
2022-09-11T09:19:05.845Z,18.41
2022-09-11T09:22:03.426Z,18.39
2022-09-11T09:24:41.924Z,18.41
2022-09-11T09:27:17.314Z,18.37
2022-09-11T09:29:47.064Z,18.33
2022-09-11T09:32:32.019Z,18.28
2022-09-11T09:35:05.183Z,18.17
2022-09-11T09:37:31.891Z,18.05
2022-09-11T09:40:09.432Z,17.96
2022-09-11T09:43:01.101Z,17.85
2022-09-11T09:45:55.832Z,17.80
2022-09-11T09:48:22.565Z,17.79
2022-09-11T09:50:49.101Z,17.77
2022-09-11T09:53:24.761Z,17.71
2022-09-11T09:55:53.505Z,17.70
2022-09-11T09:58:25.624Z,17.61
2022-09-11T10:00:52.151Z,17.54
2022-09-11T10:03:24.189Z,17.46
2022-09-11T10:05:53.211Z,17.40
2022-09-11T10:08:59.034Z,17.31
2022-09-11T10:11:28.933Z,17.28
2022-09-11T10:13:56.107Z,17.25
2022-09-11T10:16:29.076Z,17.22
2022-09-11T10:18:56.096Z,17.23
2022-09-11T10:21:31.460Z,17.23
2022-09-11T10:24:14.273Z,17.25
2022-09-11T10:26:49.953Z,17.27
2022-09-11T10:29:23.758Z,17.29
2022-09-11T10:31:52.144Z,17.33
2022-09-11T10:34:20.605Z,17.37
2022-09-11T10:37:22.374Z,17.44
2022-09-11T10:39:49.706Z,17.51
2022-09-11T10:42:22.404Z,17.59
2022-09-11T10:44:51.753Z,17.68
2022-09-11T10:47:18.208Z,17.77
2022-09-11T10:49:45.454Z,17.83
2022-09-11T10:52:11.926Z,17.85
2022-09-11T10:54:44.386Z,17.90
2022-09-11T10:57:21.897Z,17.97
2022-09-11T10:59:51.264Z,17.98
2022-09-11T11:02:25.728Z,18.05
2022-09-11T11:04:52.259Z,18.06
2022-09-11T11:07:45.697Z,18.10
2022-09-11T11:10:17.872Z,18.18
2022-09-11T11:13:09.265Z,18.26
2022-09-11T11:15:48.315Z,18.36
2022-09-11T11:18:46.411Z,18.41
2022-09-11T11:21:12.854Z,18.51
2022-09-11T11:23:57.844Z,18.55
2022-09-11T11:26:37.620Z,18.62
2022-09-11T11:29:22.311Z,18.70
2022-09-11T11:32:08.301Z,18.73
2022-09-11T11:34:59.647Z,18.81
2022-09-11T11:37:33.258Z,18.90
2022-09-11T11:39:59.778Z,18.93
2022-09-11T11:42:33.674Z,18.92
2022-09-11T11:45:09.693Z,18.93
2022-09-11T11:47:41.182Z,18.90
2022-09-11T11:50:16.784Z,18.84
2022-09-11T11:52:56.000Z,18.72
2022-09-11T11:55:31.095Z,18.65
2022-09-11T11:58:11.116Z,18.56
2022-09-11T12:00:43.387Z,18.52
2022-09-11T12:03:32.233Z,18.48
2022-09-11T12:05:58.782Z,18.51
2022-09-11T12:08:25.524Z,18.56
2022-09-11T12:11:03.219Z,18.59
2022-09-11T12:13:32.273Z,18.63
2022-09-11T12:16:17.247Z,18.61
2022-09-11T12:19:22.114Z,18.67
2022-09-11T12:21:54.763Z,18.72
2022-09-11T12:24:43.313Z,18.76
2022-09-11T12:27:31.897Z,18.83
2022-09-11T12:30:20.301Z,18.94
2022-09-11T12:33:00.866Z,19.07
2022-09-11T12:35:39.248Z,19.20
2022-09-11T12:38:08.702Z,19.35
2022-09-11T12:40:40.139Z,19.50
2022-09-11T12:43:28.189Z,19.63
2022-09-11T12:45:55.151Z,19.75
2022-09-11T12:48:25.448Z,19.86
2022-09-11T12:50:56.789Z,19.91
2022-09-11T12:53:28.335Z,20.02
2022-09-11T12:56:00.913Z,20.14
2022-09-11T12:58:37.893Z,20.28
2022-09-11T13:01:16.512Z,20.42
2022-09-11T13:04:00.308Z,20.53
2022-09-11T13:06:49.961Z,20.62
2022-09-11T13:09:29.154Z,20.73
2022-09-11T13:12:17.196Z,20.80
2022-09-11T13:14:45.821Z,20.90
2022-09-11T13:17:14.022Z,20.89
2022-09-11T13:19:40.506Z,21.09
2022-09-11T13:22:28.963Z,21.13
2022-09-11T13:25:20.037Z,21.12
2022-09-11T13:27:50.019Z,21.04
2022-09-11T13:30:19.914Z,20.89
2022-09-11T13:32:48.594Z,20.68
2022-09-11T13:35:18.606Z,20.43
2022-09-11T13:37:58.109Z,20.24
2022-09-11T13:40:33.445Z,20.02
2022-09-11T13:43:01.487Z,19.87
2022-09-11T13:45:28.119Z,19.64
2022-09-11T13:47:55.322Z,19.64
2022-09-11T13:50:22.268Z,19.59
2022-09-11T13:52:50.316Z,19.56
2022-09-11T13:55:19.371Z,19.40
2022-09-11T13:58:00.295Z,19.45
2022-09-11T14:00:56.392Z,19.43
2022-09-11T14:03:28.287Z,19.45
2022-09-11T14:05:57.600Z,19.45
2022-09-11T14:08:38.419Z,19.43
2022-09-11T14:11:11.560Z,19.47
2022-09-11T14:13:41.116Z,19.50
2022-09-11T14:16:13.867Z,19.55
2022-09-11T14:18:52.369Z,19.61
2022-09-11T14:21:24.259Z,19.64
2022-09-11T14:23:53.122Z,19.69
2022-09-11T14:26:21.524Z,19.73
2022-09-11T14:28:59.760Z,19.75
2022-09-11T14:31:39.081Z,19.80
2022-09-11T14:34:28.479Z,19.79
2022-09-11T14:37:05.226Z,19.81
2022-09-11T14:39:45.785Z,19.85
2022-09-11T14:42:32.248Z,19.88
2022-09-11T14:44:59.123Z,19.97
2022-09-11T14:47:28.633Z,20.04
2022-09-11T14:49:56.447Z,20.09
2022-09-11T14:52:29.024Z,20.13
2022-09-11T14:54:56.102Z,20.22
2022-09-11T14:57:27.323Z,20.25
2022-09-11T14:59:53.889Z,20.30
2022-09-11T15:02:23.053Z,20.37
2022-09-11T15:04:51.249Z,20.47
2022-09-11T15:07:18.568Z,20.53
2022-09-11T15:09:46.714Z,20.65
2022-09-11T15:12:13.701Z,20.65
2022-09-11T15:14:58.433Z,20.89
2022-09-11T15:17:25.861Z,20.95
2022-09-11T15:19:52.441Z,20.95
2022-09-11T15:22:19.095Z,20.92
2022-09-11T15:24:45.688Z,20.87
2022-09-11T15:27:12.184Z,20.81
2022-09-11T15:29:38.924Z,20.74
2022-09-11T15:32:05.763Z,20.68
2022-09-11T15:34:32.251Z,20.57
2022-09-11T15:36:59.242Z,20.51
2022-09-11T15:39:25.940Z,20.46
2022-09-11T15:41:54.125Z,20.42
2022-09-11T15:44:23.355Z,20.40
2022-09-11T15:46:52.271Z,20.38
2022-09-11T15:49:20.563Z,20.37
2022-09-11T15:51:48.148Z,20.38
2022-09-11T15:54:15.304Z,20.40
2022-09-11T15:56:43.344Z,20.53
2022-09-11T15:59:10.886Z,20.55
2022-09-11T16:01:38.635Z,20.80
2022-09-11T16:04:08.811Z,20.90
2022-09-11T16:06:38.019Z,20.98
2022-09-11T16:09:08.006Z,21.02
2022-09-11T16:11:35.261Z,21.04
2022-09-11T16:14:02.399Z,21.02
2022-09-11T16:16:29.024Z,21.01
2022-09-11T16:18:55.558Z,20.99
2022-09-11T16:21:22.201Z,20.95
2022-09-11T16:23:53.725Z,20.91
2022-09-11T16:26:22.736Z,20.86
2022-09-11T16:28:49.401Z,20.81
2022-09-11T16:31:16.455Z,20.77
2022-09-11T16:33:44.412Z,20.73
2022-09-11T16:36:17.150Z,20.70
2022-09-11T16:38:44.764Z,20.62
2022-09-11T16:41:16.960Z,20.57
2022-09-11T16:43:46.196Z,20.52
2022-09-11T16:46:15.089Z,20.46
2022-09-11T16:48:42.214Z,20.39
2022-09-11T16:51:08.717Z,20.33
2022-09-11T16:53:35.568Z,20.27
2022-09-11T16:56:07.470Z,20.20
2022-09-11T16:58:34.315Z,20.14
2022-09-11T17:01:08.960Z,20.04
2022-09-11T17:03:41.257Z,19.99
2022-09-11T17:06:08.617Z,19.91
2022-09-11T17:08:35.649Z,19.85
2022-09-11T17:11:02.621Z,19.76
2022-09-11T17:13:29.217Z,19.68
2022-09-11T17:16:05.027Z,19.61
2022-09-11T17:18:32.201Z,19.52
2022-09-11T17:21:03.960Z,19.45
2022-09-11T17:23:31.291Z,19.38
2022-09-11T17:25:57.831Z,19.31
2022-09-11T17:28:24.748Z,19.23
2022-09-11T17:30:51.230Z,19.16
2022-09-11T17:33:18.092Z,19.08
2022-09-11T17:35:44.556Z,19.01
2022-09-11T17:38:11.133Z,18.92
2022-09-11T17:40:37.703Z,18.85
2022-09-11T17:43:04.198Z,18.77
2022-09-11T17:45:30.926Z,18.70
2022-09-11T17:47:57.703Z,18.63
2022-09-11T17:50:24.484Z,18.57
2022-09-11T17:52:50.961Z,18.50
2022-09-11T17:55:17.560Z,18.43
2022-09-11T17:57:44.540Z,18.37
2022-09-11T18:00:12.215Z,18.31
2022-09-11T18:02:38.979Z,18.23
2022-09-11T18:05:06.005Z,18.18
2022-09-11T18:07:32.637Z,18.11
2022-09-11T18:09:59.137Z,18.06
2022-09-11T18:12:25.601Z,18.01
2022-09-11T18:14:52.139Z,17.94
2022-09-11T18:17:18.676Z,17.87
2022-09-11T18:19:45.174Z,17.82
2022-09-11T18:22:11.660Z,17.76
2022-09-11T18:24:39.862Z,17.71
2022-09-11T18:27:06.635Z,17.65
2022-09-11T18:29:33.189Z,17.59
2022-09-11T18:32:00.180Z,17.53
2022-09-11T18:34:27.575Z,17.46
2022-09-11T18:36:54.324Z,17.41
2022-09-11T18:39:21.611Z,17.35
2022-09-11T18:41:50.071Z,17.30
2022-09-11T18:44:20.020Z,17.25
2022-09-11T18:46:47.372Z,17.19
2022-09-11T18:49:15.324Z,17.17
2022-09-11T18:51:42.247Z,17.13
2022-09-11T18:54:15.848Z,17.12
2022-09-11T18:56:42.780Z,17.12
2022-09-11T18:59:11.237Z,17.13
2022-09-11T19:01:37.967Z,17.13
2022-09-11T19:04:11.537Z,17.12
2022-09-11T19:06:39.167Z,17.12
2022-09-11T19:09:07.588Z,17.12
2022-09-11T19:11:34.085Z,17.13
2022-09-11T19:14:05.874Z,17.14
2022-09-11T19:16:33.144Z,17.12
2022-09-11T19:19:00.350Z,17.11
2022-09-11T19:21:27.666Z,17.11
2022-09-11T19:23:57.997Z,17.07
2022-09-11T19:26:25.800Z,17.04
2022-09-11T19:28:53.933Z,17.01
2022-09-11T19:31:21.395Z,16.90
2022-09-11T19:33:48.277Z,16.94
2022-09-11T19:36:17.241Z,16.93
2022-09-11T19:38:45.968Z,16.92
2022-09-11T19:41:15.211Z,16.88
2022-09-11T19:43:42.732Z,16.84
2022-09-11T19:46:12.879Z,16.80
2022-09-11T19:48:40.773Z,16.78
2022-09-11T19:51:12.722Z,16.73
2022-09-11T19:53:40.592Z,16.68
2022-09-11T19:56:08.320Z,16.64
2022-09-11T19:58:35.368Z,16.59
2022-09-11T20:01:06.921Z,16.54
2022-09-11T20:03:33.460Z,16.49
2022-09-11T20:06:00.424Z,16.45
2022-09-11T20:08:27.470Z,16.40
2022-09-11T20:10:53.950Z,16.35
2022-09-11T20:13:20.408Z,16.30
2022-09-11T20:15:47.094Z,16.27
2022-09-11T20:18:13.705Z,16.20
2022-09-11T20:20:44.807Z,16.16
2022-09-11T20:23:12.035Z,16.12
2022-09-11T20:25:38.652Z,16.08
2022-09-11T20:28:05.273Z,16.05
2022-09-11T20:30:32.949Z,16.01
2022-09-11T20:33:00.694Z,15.95
2022-09-11T20:35:27.333Z,15.90
2022-09-11T20:37:54.055Z,15.86
2022-09-11T20:40:20.541Z,15.81
2022-09-11T20:42:47.358Z,15.78
2022-09-11T20:45:13.879Z,15.73
2022-09-11T20:47:40.468Z,15.71
2022-09-11T20:50:07.781Z,15.67
2022-09-11T20:52:38.752Z,15.62
2022-09-11T20:55:07.179Z,15.60
2022-09-11T20:57:33.719Z,15.54
2022-09-11T21:00:00.725Z,15.52
2022-09-11T21:02:27.527Z,15.49
2022-09-11T21:04:54.025Z,15.47
2022-09-11T21:07:20.507Z,15.42
2022-09-11T21:09:46.978Z,15.39
2022-09-11T21:12:13.559Z,15.36
2022-09-11T21:14:41.995Z,15.32
2022-09-11T21:17:08.526Z,15.30
2022-09-11T21:19:35.078Z,15.27
2022-09-11T21:22:01.522Z,15.26
2022-09-11T21:24:28.030Z,15.23
2022-09-11T21:26:54.578Z,15.20
2022-09-11T21:29:21.367Z,15.18
2022-09-11T21:31:47.894Z,15.16
2022-09-11T21:34:14.540Z,15.14
2022-09-11T21:36:41.028Z,15.12
2022-09-11T21:39:07.730Z,15.11
2022-09-11T21:41:34.321Z,15.08
2022-09-11T21:44:00.946Z,15.07
2022-09-11T21:46:27.576Z,15.04
2022-09-11T21:48:54.150Z,15.01
2022-09-11T21:51:20.955Z,14.99
2022-09-11T21:53:49.284Z,14.95
2022-09-11T21:56:22.066Z,14.93
2022-09-11T21:58:48.871Z,14.90
2022-09-11T22:01:15.510Z,14.87
2022-09-11T22:03:42.081Z,14.85
2022-09-11T22:06:10.325Z,14.82
2022-09-11T22:08:38.241Z,14.79
2022-09-11T22:11:04.900Z,14.75
2022-09-11T22:13:32.772Z,14.73
2022-09-11T22:15:59.444Z,14.69
2022-09-11T22:18:26.125Z,14.67
2022-09-11T22:20:52.601Z,14.64
2022-09-11T22:23:20.367Z,14.61
2022-09-11T22:25:46.859Z,14.58
2022-09-11T22:28:13.665Z,14.56
2022-09-11T22:30:44.333Z,14.51
2022-09-11T22:33:10.970Z,14.51
2022-09-11T22:35:37.603Z,14.48
2022-09-11T22:38:04.076Z,14.45
2022-09-11T22:40:30.619Z,14.43
2022-09-11T22:42:57.107Z,14.39
2022-09-11T22:45:23.775Z,14.37
2022-09-11T22:47:50.288Z,14.33
2022-09-11T22:50:17.033Z,14.30
2022-09-11T22:52:43.484Z,14.27
2022-09-11T22:55:10.697Z,14.23
2022-09-11T22:57:38.358Z,14.19
2022-09-11T23:00:08.627Z,14.15
2022-09-11T23:02:35.735Z,14.12
2022-09-11T23:05:03.258Z,14.10
2022-09-11T23:07:29.788Z,14.06
2022-09-11T23:09:56.225Z,14.04
2022-09-11T23:12:22.790Z,14.02
2022-09-11T23:14:49.262Z,13.99
2022-09-11T23:17:15.791Z,13.96
2022-09-11T23:19:42.314Z,13.93
2022-09-11T23:22:08.753Z,13.90
2022-09-11T23:24:35.318Z,13.88
2022-09-11T23:27:01.831Z,13.86
2022-09-11T23:29:28.338Z,13.85
2022-09-11T23:31:56.501Z,13.83
2022-09-11T23:34:23.194Z,13.81
2022-09-11T23:36:49.690Z,13.78
2022-09-11T23:39:16.303Z,13.77
2022-09-11T23:41:42.787Z,13.76
2022-09-11T23:44:09.475Z,13.75
2022-09-11T23:46:35.933Z,13.74
2022-09-11T23:49:02.515Z,13.72
2022-09-11T23:51:29.020Z,13.71
2022-09-11T23:53:55.531Z,13.69
2022-09-11T23:56:22.174Z,13.67
2022-09-11T23:58:49.727Z,13.66
